Historical Weather Data

Kanab, UT VWS

Date ET
(Inches)
Rain
(Inches)
Temp °F
Humidity
Avg
Wind MPH
Avg
Solar Wm2
Avg
High Ave Low
01/01/2018 12:00 am 0.069 0.00 58.0 41.5 29.0 26 2.4 134
01/02/2018 12:00 am 0.083 0.00 58.0 41.1 28.3 28 3.9 133
01/03/2018 12:00 am 0.078 0.00 54.0 39.3 29.0 25 3.6 135
01/04/2018 12:00 am 0.056 0.00 56.0 39.4 27.0 22 1.5 136
01/05/2018 12:00 am 0.058 0.00 58.0 41.4 29.0 29 1.6 133
01/06/2018 12:00 am 0.053 0.05 57.0 44.0 33.0 47 2.1 94
01/07/2018 12:00 am 0.062 0.00 56.0 42.2 30.0 48 2.5 132
01/08/2018 12:00 am 0.043 0.02 51.0 40.8 32.0 54 3.3 48
01/09/2018 12:00 am 0.023 0.44 48.3 42.6 36.0 73 2.9 12
01/10/2018 12:00 am 0.052 0.06 48.0 40.9 34.0 74 6.4 87
01/11/2018 12:00 am 0.056 0.00 52.0 40.0 29.0 62 2.7 129
01/12/2018 12:00 am 0.065 0.00 56.0 42.2 32.0 55 3.2 136
01/13/2018 12:00 am 0.063 0.00 55.0 40.7 28.0 49 2.7 139
01/14/2018 12:00 am 0.070 0.00 56.0 42.7 32.0 49 3.1 135
01/15/2018 12:00 am 0.058 0.00 56.0 42.9 32.0 52 1.8 128
01/16/2018 12:00 am 0.068 0.00 52.0 41.1 31.0 48 3.8 115
01/17/2018 12:00 am 0.076 0.00 56.0 42.8 31.0 48 3.3 141
01/18/2018 12:00 am 0.078 0.00 57.0 44.3 33.0 44 3.1 144
01/19/2018 12:00 am 0.089 0.00 61.0 46.4 35.0 43 5.7 102
01/20/2018 12:00 am 0.044 0.16 44.0 39.2 28.0 60 5.1 39
01/21/2018 12:00 am 0.062 0.00 41.0 30.2 23.0 52 3.7 150
01/22/2018 12:00 am 0.054 0.00 40.0 29.1 20.0 40 1.8 154
01/23/2018 12:00 am 0.069 0.00 45.0 32.4 23.0 40 3.8 154
01/24/2018 12:00 am 0.087 0.00 49.0 36.0 25.0 36 5.7 155
01/25/2018 12:00 am 0.124 0.00 53.0 40.2 30.7 32 9.5 158
01/26/2018 12:00 am 0.066 0.00 45.0 35.7 28.7 39 2.6 160
01/27/2018 12:00 am 0.064 0.00 48.0 34.8 25.0 38 2.0 161
01/28/2018 12:00 am 0.080 0.00 54.0 40.5 29.0 37 3.2 159
01/29/2018 12:00 am 0.089 0.00 57.0 42.9 31.0 40 3.8 159
01/30/2018 12:00 am 0.082 0.00 61.0 44.9 32.0 33 2.0 164
01/31/2018 12:00 am 0.095 0.00 63.0 46.6 34.0 30 2.8 166
02/01/2018 12:00 am 0.084 0.00 62.0 47.4 36.0 34 2.2 163
02/02/2018 12:00 am 0.088 0.00 63.0 48.6 37.0 42 2.6 163
02/03/2018 12:00 am 0.095 0.00 64.0 49.5 37.0 44 3.3 167
02/04/2018 12:00 am 0.086 0.00 64.0 48.9 36.0 41 2.2 168
02/05/2018 12:00 am 0.104 0.00 65.0 49.7 36.0 38 3.3 172
02/06/2018 12:00 am 0.103 0.00 57.0 44.9 35.0 37 4.0 178
02/07/2018 12:00 am 0.079 0.00 58.0 43.0 29.0 32 1.6 182
02/08/2018 12:00 am 0.091 0.00 63.0 46.7 33.0 37 2.2 182
02/09/2018 12:00 am 0.117 0.00 66.0 49.1 35.0 34 3.9 180
02/10/2018 12:00 am 0.132 0.00 60.0 44.8 34.0 33 6.9 183
02/11/2018 12:00 am 0.095 0.00 52.0 37.0 26.0 27 4.2 190
02/12/2018 12:00 am 0.059 0.24 48.0 37.3 27.0 49 4.5 80
02/13/2018 12:00 am 0.046 0.20 44.0 36.5 30.0 69 2.0 107
02/14/2018 12:00 am 0.048 0.04 49.0 39.9 32.0 73 4.1 72
02/15/2018 12:00 am 0.075 0.01 44.0 38.1 32.0 62 5.0 167
02/16/2018 12:00 am 0.089 0.00 50.3 37.0 25.0 41 3.2 198
02/17/2018 12:00 am 0.115 0.00 56.0 40.8 28.0 35 4.9 203
02/18/2018 12:00 am 0.134 0.00 56.0 41.8 28.0 43 11.2 188
02/19/2018 12:00 am 0.078 0.07 37.0 32.4 23.0 51 7.5 182
02/20/2018 12:00 am 0.066 0.00 33.0 24.5 18.0 45 2.4 209
02/21/2018 12:00 am 0.067 0.00 36.0 25.7 15.0 36 2.4 203
02/22/2018 12:00 am 0.070 0.11 35.0 27.7 20.0 48 5.4 179
02/23/2018 12:00 am 0.062 0.08 34.0 27.0 21.0 62 4.7 196
02/24/2018 12:00 am 0.067 0.00 35.0 25.2 15.0 54 5.0 185
02/25/2018 12:00 am 0.078 0.00 40.0 28.3 19.0 49 3.8 221
02/26/2018 12:00 am 0.095 0.00 48.0 34.3 21.0 40 4.2 223
02/27/2018 12:00 am 0.082 0.00 45.0 35.3 25.0 45 1.9 209
02/28/2018 12:00 am 0.078 0.00 45.0 34.8 26.0 62 3.5 193
03/01/2018 12:00 am 0.095 0.00 50.0 37.7 27.0 52 4.2 193
03/02/2018 12:00 am 0.136 0.00 56.0 43.1 30.0 43 7.6 223
03/03/2018 12:00 am 0.129 0.01 56.0 44.8 36.0 43 9.7 162
03/04/2018 12:00 am 0.091 0.03 43.0 35.1 26.7 52 7.6 206
03/05/2018 12:00 am 0.099 0.00 47.0 33.4 22.0 37 3.3 243
03/06/2018 12:00 am 0.126 0.00 52.0 36.8 23.0 28 5.5 244
03/07/2018 12:00 am 0.123 0.00 60.0 43.0 25.0 28 3.7 220
03/08/2018 12:00 am 0.128 0.00 62.3 46.2 30.0 29 2.4 247
03/09/2018 12:00 am 0.130 0.00 62.0 46.8 33.0 30 2.5 245
03/10/2018 12:00 am 0.084 0.00 58.0 46.2 33.0 43 2.6 128
03/11/2018 12:00 am 0.057 0.00 56.0 46.5 38.0 67 2.7 115
03/12/2018 12:00 am 0.101 0.00 62.0 49.0 38.0 60 2.0 218
03/13/2018 12:00 am 0.101 0.00 65.0 52.3 39.0 52 2.1 196
03/14/2018 12:00 am 0.118 0.03 65.0 52.7 44.0 47 4.9 154
03/15/2018 12:00 am 0.053 0.10 46.0 41.1 34.3 65 3.5 95
03/16/2018 12:00 am 0.096 0.00 53.0 39.7 26.0 56 2.8 215
03/17/2018 12:00 am 0.072 0.11 51.0 42.0 34.0 59 4.1 125
03/18/2018 12:00 am 0.078 0.17 43.0 35.7 30.0 61 3.6 188
03/19/2018 12:00 am 0.107 0.00 50.0 38.1 24.0 47 1.8 259
03/20/2018 12:00 am 0.117 0.00 57.0 43.1 30.0 42 2.1 259
03/21/2018 12:00 am 0.102 0.00 64.0 49.8 36.0 49 3.6 144
03/22/2018 12:00 am 0.070 0.16 61.0 51.7 43.0 64 3.4 87
03/23/2018 12:00 am 0.125 0.18 60.0 50.8 41.0 62 4.2 243
03/24/2018 12:00 am 0.145 0.00 60.0 48.3 35.0 42 4.9 239
03/25/2018 12:00 am 0.144 0.00 56.0 46.4 37.0 37 4.6 266
03/26/2018 12:00 am 0.126 0.00 54.0 40.4 28.0 40 3.5 273
03/27/2018 12:00 am 0.149 0.00 56.0 43.0 28.0 33 4.8 290
03/28/2018 12:00 am 0.150 0.00 65.0 47.8 32.0 40 3.8 280
03/29/2018 12:00 am 0.159 0.00 66.0 51.6 34.0 35 2.7 291
03/30/2018 12:00 am 0.171 0.00 70.0 54.3 35.0 31 3.1 291
03/31/2018 12:00 am 0.185 0.00 71.0 56.1 40.3 28 3.4 277
04/01/2018 12:00 am 0.180 0.00 72.0 59.6 47.3 25 2.9 283
04/02/2018 12:00 am 0.210 0.00 71.0 56.5 40.0 26 5.7 299
04/03/2018 12:00 am 0.163 0.00 62.0 51.2 38.0 24 3.9 305
04/04/2018 12:00 am 0.181 0.00 69.0 52.1 34.0 22 3.3 302
04/05/2018 12:00 am 0.179 0.00 72.0 56.5 37.0 30 3.0 283
04/06/2018 12:00 am 0.171 0.00 75.0 58.9 44.0 41 3.8 247
04/07/2018 12:00 am 0.171 0.07 78.0 62.3 49.5 47 4.3 238
04/08/2018 12:00 am 0.187 0.00 67.0 57.3 47.0 32 3.5 317
04/09/2018 12:00 am 0.167 0.00 70.0 54.8 41.3 31 3.2 316
04/10/2018 12:00 am 0.187 0.00 77.0 60.6 44.0 22 2.7 318
04/11/2018 12:00 am 0.236 0.00 80.0 64.2 49.0 19 5.4 318
04/12/2018 12:00 am 0.199 0.00 64.0 54.6 40.0 23 8.5 318
04/13/2018 12:00 am 0.155 0.00 50.0 41.9 33.3 29 7.4 327
04/14/2018 12:00 am 0.161 0.00 67.0 48.9 27.0 30 2.5 327
04/15/2018 12:00 am 0.193 0.00 69.0 55.8 38.0 23 3.6 314
04/16/2018 12:00 am 0.250 0.00 71.0 59.5 44.0 15 7.5 330
04/17/2018 12:00 am 0.162 0.00 56.0 46.7 37.0 29 4.5 334
04/18/2018 12:00 am 0.173 0.00 63.0 48.9 30.3 21 3.5 339
04/19/2018 12:00 am 0.210 0.00 65.0 50.5 39.0 25 5.5 335
04/20/2018 12:00 am 0.121 0.01 59.0 46.4 36.0 52 5.4 235
04/21/2018 12:00 am 0.190 0.00 74.0 54.9 35.0 37 2.4 341
04/22/2018 12:00 am 0.204 0.00 77.0 61.3 43.0 28 2.8 338
04/23/2018 12:00 am 0.230 0.00 79.0 64.0 49.0 22 3.8 337
04/24/2018 12:00 am 0.220 0.00 80.0 64.3 48.0 22 2.9 338
04/25/2018 12:00 am 0.214 0.00 80.0 64.9 45.0 21 3.3 346
04/26/2018 12:00 am 0.204 0.00 82.0 63.9 48.0 19 2.6 348
04/27/2018 12:00 am 0.241 0.00 83.0 68.7 53.0 17 3.1 349
04/28/2018 12:00 am 0.255 0.00 81.0 67.2 50.0 20 3.8 350
04/29/2018 12:00 am 0.259 0.00 77.0 61.5 44.0 17 5.7 354
04/30/2018 12:00 am 0.181 0.00 65.0 56.3 47.0 30 3.8 301
05/01/2018 12:00 am 0.082 0.11 60.0 51.1 43.0 56 2.8 117
05/02/2018 12:00 am 0.100 0.04 54.0 46.6 41.0 65 2.1 189
05/03/2018 12:00 am 0.163 0.00 67.0 53.2 39.0 55 1.9 312
05/04/2018 12:00 am 0.195 0.00 75.0 60.1 44.0 35 1.7 358
05/05/2018 12:00 am 0.225 0.00 82.0 66.9 48.0 24 2.4 355
05/06/2018 12:00 am 0.241 0.00 85.0 69.1 52.0 17 2.8 357
05/07/2018 12:00 am 0.227 0.00 86.0 70.9 54.0 14 2.0 350
05/08/2018 12:00 am 0.229 0.00 90.0 72.3 50.0 16 1.7 364
05/09/2018 12:00 am 0.256 0.00 90.0 73.3 55.0 14 2.7 368
05/10/2018 12:00 am 0.295 0.00 86.0 71.8 53.0 17 5.4 361
05/11/2018 12:00 am 0.278 0.00 81.0 68.8 55.0 25 6.3 353
05/12/2018 12:00 am 0.208 0.00 67.0 59.3 52.0 31 4.5 353
05/13/2018 12:00 am 0.227 0.00 71.0 58.1 43.0 25 3.8 363
05/14/2018 12:00 am 0.218 0.00 74.0 61.5 46.0 28 2.8 361
05/15/2018 12:00 am 0.235 0.00 77.0 64.1 45.0 24 2.7 374
05/16/2018 12:00 am 0.261 0.00 82.0 65.6 44.0 18 3.7 377
05/17/2018 12:00 am 0.272 0.00 80.0 65.5 45.0 17 4.3 375
05/18/2018 12:00 am 0.238 0.00 78.0 63.8 44.0 23 3.0 372
05/19/2018 12:00 am 0.236 0.00 81.0 67.5 51.0 29 2.8 358
05/20/2018 12:00 am 0.249 0.00 81.0 68.4 53.0 25 3.0 362
05/21/2018 12:00 am 0.239 0.00 76.0 64.5 49.0 21 4.0 333
05/22/2018 12:00 am 0.210 0.00 73.0 62.7 52.0 37 3.1 316
05/23/2018 12:00 am 0.250 0.00 79.0 65.1 48.0 36 3.4 376
05/24/2018 12:00 am 0.244 0.00 85.0 68.7 49.0 24 2.0 381
05/25/2018 12:00 am 0.276 0.00 86.0 69.5 50.0 19 3.4 382
05/26/2018 12:00 am 0.277 0.00 77.0 63.8 47.0 23 5.1 378
05/27/2018 12:00 am 0.238 0.00 74.0 61.6 44.0 30 3.2 370
05/28/2018 12:00 am 0.258 0.00 76.0 63.6 47.0 34 5.5 362
05/29/2018 12:00 am 0.252 0.00 84.0 68.0 50.0 33 2.9 380
05/30/2018 12:00 am 0.288 0.00 87.0 72.3 54.0 25 3.8 379
05/31/2018 12:00 am 0.294 0.00 85.0 70.7 53.0 21 4.8 382
06/01/2018 12:00 am 0.260 0.00 85.0 69.6 50.0 22 3.3 384
06/02/2018 12:00 am 0.280 0.00 89.0 74.1 59.0 18 3.8 379
06/03/2018 12:00 am 0.278 0.00 93.0 76.4 56.7 15 2.9 388
06/04/2018 12:00 am 0.298 0.00 94.0 77.3 56.0 16 3.4 387
06/05/2018 12:00 am 0.289 0.00 90.0 76.0 57.0 13 3.2 389
06/06/2018 12:00 am 0.294 0.00 90.0 74.5 56.0 17 3.6 388
06/07/2018 12:00 am 0.288 0.00 89.0 73.8 54.0 16 3.5 390
06/08/2018 12:00 am 0.274 0.00 91.0 74.4 54.0 13 2.6 392
06/09/2018 12:00 am 0.318 0.00 91.0 75.3 55.0 12 4.3 393
06/10/2018 12:00 am 0.312 0.00 86.0 73.5 55.0 15 5.2 391
06/11/2018 12:00 am 0.277 0.00 92.0 74.6 54.0 15 3.1 392
06/12/2018 12:00 am 0.279 0.00 95.0 77.9 55.0 14 2.7 389
06/13/2018 12:00 am 0.332 0.00 97.0 79.9 56.0 14 4.6 382
06/14/2018 12:00 am 0.338 0.00 94.0 79.3 61.0 16 5.4 376
06/15/2018 12:00 am 0.322 0.00 91.0 76.2 61.0 23 5.5 371
06/16/2018 12:00 am 0.192 0.03 80.0 72.4 66.0 48 3.8 253
06/17/2018 12:00 am 0.300 0.00 83.0 71.5 60.0 34 5.8 381
06/18/2018 12:00 am 0.273 0.00 85.0 71.1 53.0 24 3.4 389
06/19/2018 12:00 am 0.269 0.00 89.0 73.4 52.0 17 2.4 393
06/20/2018 12:00 am 0.263 0.00 97.0 76.0 59.0 19 2.7 393
06/21/2018 12:00 am 0.320 0.00 98.0 81.9 60.0 17 3.9 388
06/22/2018 12:00 am 0.302 0.00 96.0 80.6 62.0 16 3.6 390
06/23/2018 12:00 am 0.350 0.00 96.0 80.5 58.5 17 5.5 390
06/24/2018 12:00 am 0.305 0.00 93.0 78.9 56.0 21 4.1 386
06/25/2018 12:00 am 0.297 0.00 96.0 79.4 58.0 17 3.3 389
06/26/2018 12:00 am 0.291 0.00 99.0 82.3 61.0 14 2.7 391
06/27/2018 12:00 am 0.319 0.00 97.0 82.0 60.0 11 3.9 392
06/28/2018 12:00 am 0.360 0.00 95.0 79.4 58.0 10 5.9 392
06/29/2018 12:00 am 0.309 0.00 91.0 76.5 55.0 14 4.5 390
06/30/2018 12:00 am 0.286 0.00 91.0 76.0 56.0 16 3.0 391
07/01/2018 12:00 am 0.292 0.00 93.0 79.3 60.0 17 3.3 389
07/02/2018 12:00 am 0.315 0.00 96.0 80.2 59.0 14 4.0 385
07/03/2018 12:00 am 0.326 0.00 94.0 79.8 62.0 12 4.7 391
07/04/2018 12:00 am 0.274 0.00 93.0 77.9 62.0 16 2.7 383
07/05/2018 12:00 am 0.274 0.00 98.0 81.6 62.0 17 2.6 373
07/06/2018 12:00 am 0.268 0.00 99.0 84.6 67.5 25 2.7 351
07/07/2018 12:00 am 0.258 0.00 98.0 82.4 65.0 31 2.7 334
07/08/2018 12:00 am 0.256 0.00 97.0 84.3 69.0 30 2.6 319
07/09/2018 12:00 am 0.251 0.01 95.0 82.0 69.0 34 3.0 320
07/10/2018 12:00 am 0.239 0.00 92.0 78.2 63.0 44 2.9 312
07/11/2018 12:00 am 0.205 0.00 93.0 78.5 67.5 47 2.6 268
07/12/2018 12:00 am 0.174 0.16 88.0 76.4 67.0 53 2.4 221
07/13/2018 12:00 am 0.162 0.04 88.0 75.3 62.0 54 2.2 205
07/14/2018 12:00 am 0.159 0.06 88.0 77.1 68.0 51 1.7 206
07/15/2018 12:00 am 0.195 0.07 89.0 76.4 67.0 55 1.7 275
07/16/2018 12:00 am 0.215 0.00 92.0 78.1 67.0 48 1.8 309
07/17/2018 12:00 am 0.219 0.00 92.0 79.2 68.0 46 2.3 297
07/18/2018 12:00 am 0.227 0.00 95.0 80.6 67.0 47 3.2 278
07/19/2018 12:00 am 0.212 0.00 92.0 78.2 67.0 48 2.8 269
07/20/2018 12:00 am 0.201 0.06 92.0 78.6 65.0 47 2.3 264
07/21/2018 12:00 am 0.225 0.00 92.0 77.5 68.0 45 2.6 293
07/22/2018 12:00 am 0.245 0.00 92.0 78.8 63.0 44 2.2 343
07/23/2018 12:00 am 0.253 0.00 97.0 82.4 66.0 38 2.2 342
07/24/2018 12:00 am 0.259 0.00 98.0 83.8 71.0 33 2.7 337
07/25/2018 12:00 am 0.285 0.00 99.0 84.4 68.0 30 3.3 345
07/26/2018 12:00 am 0.264 0.00 97.3 83.9 70.0 30 2.5 343
07/27/2018 12:00 am 0.263 0.00 98.0 83.3 68.0 27 2.5 348
07/28/2018 12:00 am 0.271 0.00 97.0 82.5 69.0 30 3.2 345
07/29/2018 12:00 am 0.249 0.00 98.0 82.3 69.0 36 2.9 320
07/30/2018 12:00 am 0.238 0.00 100.0 81.4 66.0 35 2.2 326
07/31/2018 12:00 am 0.230 0.00 98.0 81.4 66.0 34 2.0 320
08/01/2018 12:00 am 0.245 0.00 97.0 81.1 65.0 36 2.8 315
08/02/2018 12:00 am 0.216 0.00 91.0 78.1 67.0 40 2.7 282
08/03/2018 12:00 am 0.236 0.00 90.0 78.9 63.0 43 2.6 319
08/04/2018 12:00 am 0.258 0.00 95.0 80.2 65.0 36 3.1 338
08/05/2018 12:00 am 0.279 0.00 95.0 81.1 66.0 26 3.7 355
08/06/2018 12:00 am 0.270 0.00 95.0 80.3 63.0 16 2.9 361
08/07/2018 12:00 am 0.272 0.00 98.0 81.8 63.0 14 3.0 361
08/08/2018 12:00 am 0.254 0.00 99.0 82.6 63.0 20 2.5 353
08/09/2018 12:00 am 0.252 0.00 98.0 81.5 63.0 27 2.8 331
08/10/2018 12:00 am 0.210 0.00 98.0 80.9 65.0 37 1.9 299
08/11/2018 12:00 am 0.215 0.00 94.0 78.2 66.0 42 2.3 297
08/12/2018 12:00 am 0.232 0.00 94.0 77.8 57.0 41 2.8 310
08/13/2018 12:00 am 0.250 0.00 94.0 79.5 63.0 35 3.4 323
08/14/2018 12:00 am 0.227 0.00 94.0 77.2 65.0 33 2.5 318
08/15/2018 12:00 am 0.216 0.00 90.0 75.8 63.0 35 2.3 307
08/16/2018 12:00 am 0.197 0.00 87.0 77.2 66.0 42 2.7 265
08/17/2018 12:00 am 0.224 0.00 90.0 77.7 64.0 42 2.9 298
08/18/2018 12:00 am 0.250 0.00 92.0 79.3 66.0 40 3.2 330
08/19/2018 12:00 am 0.238 0.00 97.0 80.6 65.0 27 2.5 332
08/20/2018 12:00 am 0.249 0.00 94.0 81.1 68.0 26 3.2 321
08/21/2018 12:00 am 0.153 0.40 83.0 71.1 63.0 50 3.1 201
08/22/2018 12:00 am 0.079 0.50 80.0 67.1 60.0 62 1.9 109
08/23/2018 12:00 am 0.188 0.00 82.0 69.8 59.0 56 1.9 295
08/24/2018 12:00 am 0.196 0.00 83.0 71.8 59.0 50 2.5 300
08/25/2018 12:00 am 0.198 0.00 86.0 73.5 61.0 46 2.1 298
08/26/2018 12:00 am 0.215 0.00 85.0 73.1 61.0 44 3.0 308
08/27/2018 12:00 am 0.239 0.00 87.0 74.6 64.5 34 4.4 319
08/28/2018 12:00 am 0.214 0.00 87.0 71.1 56.0 21 2.4 327
08/29/2018 12:00 am 0.203 0.00 87.0 72.0 57.0 23 2.1 317
08/30/2018 12:00 am 0.216 0.00 89.0 73.7 57.0 26 2.7 316
08/31/2018 12:00 am 0.227 0.00 88.0 73.6 59.0 31 3.5 307
09/01/2018 12:00 am 0.209 0.00 87.0 71.8 57.0 30 2.7 306
09/02/2018 12:00 am 0.185 0.00 89.0 73.1 59.0 35 1.9 288
09/03/2018 12:00 am 0.171 0.00 85.0 68.9 57.0 37 1.7 273
09/04/2018 12:00 am 0.147 0.00 83.0 68.8 57.0 46 1.6 237
09/05/2018 12:00 am 0.159 0.00 82.0 68.8 58.0 50 1.8 249
09/06/2018 12:00 am 0.182 0.00 84.0 70.5 56.0 44 2.1 284
09/07/2018 12:00 am 0.203 0.00 88.0 74.0 60.0 39 2.8 295
09/08/2018 12:00 am 0.217 0.00 92.0 76.1 61.0 30 3.0 298
09/09/2018 12:00 am 0.226 0.00 92.0 74.9 59.0 23 3.2 301
09/10/2018 12:00 am 0.213 0.00 90.0 74.3 57.0 24 2.9 298
09/11/2018 12:00 am 0.229 0.00 88.0 73.3 58.0 25 3.5 297
09/12/2018 12:00 am 0.258 0.00 87.0 71.4 53.0 20 5.2 298
09/13/2018 12:00 am 0.249 0.00 84.0 69.3 54.0 20 5.2 297
09/14/2018 12:00 am 0.219 0.00 86.0 68.4 50.0 19 3.6 295
09/15/2018 12:00 am 0.234 0.00 90.0 73.1 55.0 26 4.0 285
09/16/2018 12:00 am 0.193 0.00 88.0 74.3 58.0 34 2.8 266
09/17/2018 12:00 am 0.183 0.00 88.0 73.0 58.0 41 2.6 274
09/18/2018 12:00 am 0.202 0.00 89.0 72.4 55.0 35 3.4 275
09/19/2018 12:00 am 0.220 0.00 84.0 69.3 52.0 28 4.4 280
09/20/2018 12:00 am 0.176 0.00 84.0 66.5 48.0 25 2.4 280
09/21/2018 12:00 am 0.183 0.00 85.0 68.2 51.0 20 2.5 280
09/22/2018 12:00 am 0.178 0.00 86.0 69.2 52.0 25 2.3 273
09/23/2018 12:00 am 0.178 0.00 84.0 68.9 53.0 34 3.1 255
09/24/2018 12:00 am 0.182 0.00 83.0 69.2 55.0 35 3.2 259
09/25/2018 12:00 am 0.168 0.00 84.0 69.3 57.0 30 2.3 266
09/26/2018 12:00 am 0.174 0.00 84.0 67.3 54.0 20 2.6 269
09/27/2018 12:00 am 0.183 0.00 85.0 67.8 52.0 16 2.8 269
09/28/2018 12:00 am 0.178 0.00 85.0 67.7 47.0 18 2.6 262
09/29/2018 12:00 am 0.194 0.00 84.0 69.3 51.0 28 4.0 250
09/30/2018 12:00 am 0.178 0.00 81.0 67.0 54.0 40 4.8 220
10/01/2018 12:00 am 0.062 0.11 80.0 66.0 55.0 59 1.9 72
10/02/2018 12:00 am 0.029 0.74 71.0 63.8 55.0 76 1.9 18
10/03/2018 12:00 am 0.064 0.20 76.0 64.8 53.0 72 3.1 58
10/04/2018 12:00 am 0.122 0.29 70.0 60.3 51.0 64 4.0 184
10/05/2018 12:00 am 0.100 0.00 69.0 58.5 48.0 58 1.9 171
10/06/2018 12:00 am 0.066 0.29 62.0 52.1 46.0 65 2.6 88
10/07/2018 12:00 am 0.057 0.11 56.0 48.2 44.0 70 2.0 91
10/08/2018 12:00 am 0.073 0.01 56.0 48.5 42.0 67 1.5 151
10/09/2018 12:00 am 0.107 0.00 63.0 50.2 37.0 58 2.3 221
10/10/2018 12:00 am 0.105 0.01 64.0 55.1 44.7 53 3.0 178
10/11/2018 12:00 am 0.061 0.28 59.0 52.0 46.0 70 1.7 126
10/12/2018 12:00 am 0.109 0.00 62.0 52.6 43.0 65 3.8 219
10/13/2018 12:00 am 0.109 0.00 67.0 54.1 42.0 57 2.3 215
10/14/2018 12:00 am 0.111 0.00 56.0 47.3 39.0 44 3.0 226
10/15/2018 12:00 am 0.108 0.00 54.0 41.7 32.0 37 4.7 222
10/16/2018 12:00 am 0.105 0.01 57.0 45.4 34.7 34 3.9 195
10/17/2018 12:00 am 0.068 0.01 53.0 46.1 41.0 66 4.0 142
10/18/2018 12:00 am 0.091 0.00 61.0 47.6 36.0 63 2.6 210
10/19/2018 12:00 am 0.111 0.00 65.0 50.4 38.0 53 4.6 209
10/20/2018 12:00 am 0.106 0.00 67.0 54.5 43.0 53 4.0 177
10/21/2018 12:00 am 0.074 0.07 64.0 55.5 49.0 62 3.1 120
10/22/2018 12:00 am 0.037 0.14 63.0 53.1 48.0 74 2.2 54
10/23/2018 12:00 am 0.091 0.00 63.0 53.0 44.0 73 2.7 180
10/24/2018 12:00 am 0.088 0.00 66.0 53.7 43.0 65 1.9 179
10/25/2018 12:00 am 0.105 0.00 70.0 54.2 41.0 50 2.2 195
10/26/2018 12:00 am 0.099 0.00 70.0 53.2 39.0 46 2.4 198
10/27/2018 12:00 am 0.099 0.00 73.0 54.7 39.0 45 2.1 193
10/28/2018 12:00 am 0.106 0.00 73.0 56.2 41.0 41 2.4 188
10/29/2018 12:00 am 0.104 0.00 74.0 56.0 43.0 40 3.2 173
10/30/2018 12:00 am 0.082 0.00 62.0 50.6 43.0 50 3.3 149
10/31/2018 12:00 am 0.078 0.00 58.0 44.1 33.0 44 2.7 174
11/01/2018 12:00 am 0.082 0.00 65.0 48.6 35.0 45 2.3 170
11/02/2018 12:00 am 0.084 0.00 67.0 51.1 36.0 53 2.5 166
11/03/2018 12:00 am 0.080 0.00 63.0 49.5 38.0 42 2.3 174
11/04/2018 12:00 am 0.096 0.00 61.0 49.1 38.0 40 3.1 173
11/05/2018 12:00 am 0.109 0.00 63.0 49.9 40.0 43 4.0 178
11/06/2018 12:00 am 0.104 0.00 63.0 48.6 38.0 36 3.3 178
11/07/2018 12:00 am 0.097 0.00 60.0 45.7 35.0 31 3.1 178
11/08/2018 12:00 am 0.100 0.00 52.0 39.7 30.0 34 5.5 177
11/09/2018 12:00 am 0.087 0.00 53.0 37.7 26.0 36 4.0 175
11/10/2018 12:00 am 0.085 0.00 56.0 39.5 27.0 34 3.3 173
11/11/2018 12:00 am 0.087 0.00 49.0 36.3 27.0 35 5.4 171
11/12/2018 12:00 am 0.073 0.00 45.0 32.6 24.0 37 3.9 170
11/13/2018 12:00 am 0.073 0.00 50.0 34.7 23.0 32 3.0 166
11/14/2018 12:00 am 0.077 0.00 53.0 38.3 28.0 32 2.7 165
11/15/2018 12:00 am 0.082 0.00 58.0 41.4 30.0 36 3.0 162
11/16/2018 12:00 am 0.080 0.00 62.0 43.5 30.0 40 2.3 160
11/17/2018 12:00 am 0.084 0.00 59.0 42.5 31.0 40 3.3 157
11/18/2018 12:00 am 0.076 0.00 53.0 37.4 25.0 46 4.2 157
11/19/2018 12:00 am 0.072 0.00 55.0 36.4 24.0 39 2.8 155
11/20/2018 12:00 am 0.084 0.00 53.0 36.9 24.0 35 4.6 153
11/21/2018 12:00 am 0.083 0.00 56.0 41.4 32.0 29 3.6 151
11/22/2018 12:00 am 0.042 0.05 48.0 39.3 33.0 59 3.6 88
11/23/2018 12:00 am 0.070 0.00 53.0 40.6 30.3 61 4.2 139
11/24/2018 12:00 am 0.081 0.00 54.0 40.9 31.0 53 5.6 144
11/25/2018 12:00 am 0.069 0.00 45.0 34.3 25.0 41 4.5 146
11/26/2018 12:00 am 0.072 0.00 51.0 36.2 26.0 38 3.8 144
11/27/2018 12:00 am 0.064 0.00 53.0 38.8 28.0 31 2.1 143
11/28/2018 12:00 am 0.081 0.00 56.0 42.3 30.0 34 3.8 135
11/29/2018 12:00 am 0.049 0.38 48.0 40.0 35.0 59 4.8 55
11/30/2018 12:00 am 0.037 0.08 44.0 37.9 34.0 79 5.3 65
12/01/2018 12:00 am 0.035 0.06 46.0 34.3 27.5 72 3.3 67
12/02/2018 12:00 am 0.036 0.05 39.0 30.0 23.0 76 4.1 107
12/03/2018 12:00 am 0.040 0.00 38.0 26.2 19.0 61 1.6 133
12/04/2018 12:00 am 0.045 0.00 37.0 26.3 18.0 53 3.6 123
12/05/2018 12:00 am 0.039 0.00 41.0 30.5 23.0 55 3.3 83
12/06/2018 12:00 am 0.026 0.01 37.0 31.9 28.0 67 2.3 46
12/07/2018 12:00 am 0.037 0.02 41.0 33.8 29.0 79 2.4 108
12/08/2018 12:00 am 0.041 0.00 46.0 34.4 27.0 73 1.6 126
12/09/2018 12:00 am 0.045 0.00 44.0 32.8 25.0 66 2.8 120
12/10/2018 12:00 am 0.048 0.00 46.0 35.4 28.0 60 4.6 82
12/11/2018 12:00 am 0.058 0.00 52.0 38.5 30.0 55 3.1 125
12/12/2018 12:00 am 0.073 0.00 50.0 36.0 25.0 52 5.9 127
12/13/2018 12:00 am 0.057 0.00 46.0 31.7 21.0 38 3.0 134
12/14/2018 12:00 am 0.059 0.00 47.0 34.4 25.0 42 3.9 115
12/15/2018 12:00 am 0.060 0.00 52.0 39.3 31.7 43 2.8 127
12/16/2018 12:00 am 0.067 0.00 53.0 38.1 28.0 46 4.4 127
12/17/2018 12:00 am 0.042 0.00 50.0 38.9 30.7 49 2.6 75
12/18/2018 12:00 am 0.053 0.00 51.0 38.1 30.0 54 2.0 129
12/19/2018 12:00 am 0.052 0.00 56.0 39.4 28.0 54 2.0 129
12/20/2018 12:00 am 0.047 0.00 57.0 39.5 28.0 49 1.6 118
12/21/2018 12:00 am 0.051 0.00 56.0 41.8 33.0 43 1.7 111
12/22/2018 12:00 am 0.048 0.00 52.0 39.4 32.0 45 1.3 126
12/23/2018 12:00 am 0.048 0.00 52.0 38.9 30.0 39 1.5 127
12/24/2018 12:00 am 0.043 0.00 54.0 40.3 30.0 46 1.5 96
12/25/2018 12:00 am 0.023 0.05 44.0 36.7 31.0 66 1.7 36
12/26/2018 12:00 am 0.052 0.00 44.0 33.3 27.0 59 3.3 117
12/27/2018 12:00 am 0.033 0.00 38.0 28.7 22.0 53 2.7 67
12/28/2018 12:00 am 0.040 0.01 34.0 25.7 20.0 57 2.8 127
12/29/2018 12:00 am 0.036 0.00 35.0 23.7 15.0 51 2.0 130
12/30/2018 12:00 am 0.041 0.00 42.0 29.3 19.0 56 2.1 115
12/31/2018 12:00 am 0.036 0.00 31.0 25.4 18.0 61 3.3 110